sensor_id;sensor_type;location;lat;lon;timestamp;P1;durP1;ratioP1;P2;durP2;ratioP2
41943;SDS011;27636;52.610;13.244;2023-11-21T00:04:09;13.35;;;4.07;;
41943;SDS011;27636;52.610;13.244;2023-11-21T00:09:14;14.80;;;5.78;;
41943;SDS011;27636;52.610;13.244;2023-11-21T00:14:19;11.35;;;4.63;;
41943;SDS011;27636;52.610;13.244;2023-11-21T00:19:23;9.60;;;3.60;;
41943;SDS011;27636;52.610;13.244;2023-11-21T00:24:28;11.80;;;5.05;;
41943;SDS011;27636;52.610;13.244;2023-11-21T00:34:36;9.27;;;4.23;;
41943;SDS011;27636;52.610;13.244;2023-11-21T00:39:41;11.00;;;4.25;;
41943;SDS011;27636;52.610;13.244;2023-11-21T00:44:46;11.05;;;4.07;;
41943;SDS011;27636;52.610;13.244;2023-11-21T00:49:49;11.57;;;4.45;;
41943;SDS011;27636;52.610;13.244;2023-11-21T00:54:55;13.35;;;5.43;;
41943;SDS011;27636;52.610;13.244;2023-11-21T00:59:58;14.27;;;5.65;;
41943;SDS011;27636;52.610;13.244;2023-11-21T01:05:03;12.80;;;5.07;;
41943;SDS011;27636;52.610;13.244;2023-11-21T01:15:14;20.52;;;5.07;;
41943;SDS011;27636;52.610;13.244;2023-11-21T01:20:18;12.17;;;4.47;;
41943;SDS011;27636;52.610;13.244;2023-11-21T01:25:24;16.02;;;7.05;;
41943;SDS011;27636;52.610;13.244;2023-11-21T01:30:27;16.88;;;4.88;;
41943;SDS011;27636;52.610;13.244;2023-11-21T01:35:33;11.25;;;5.68;;
41943;SDS011;27636;52.610;13.244;2023-11-21T01:40:38;12.93;;;5.40;;
41943;SDS011;27636;52.610;13.244;2023-11-21T01:50:48;10.70;;;4.22;;
41943;SDS011;27636;52.610;13.244;2023-11-21T01:55:53;12.32;;;5.15;;
41943;SDS011;27636;52.610;13.244;2023-11-21T02:01:02;11.25;;;4.47;;
41943;SDS011;27636;52.610;13.244;2023-11-21T02:06:06;10.85;;;5.20;;
41943;SDS011;27636;52.610;13.244;2023-11-21T02:11:13;15.98;;;5.18;;
41943;SDS011;27636;52.610;13.244;2023-11-21T02:21:21;13.98;;;4.50;;
41943;SDS011;27636;52.610;13.244;2023-11-21T02:26:26;14.68;;;6.05;;
41943;SDS011;27636;52.610;13.244;2023-11-21T02:36:36;13.00;;;4.85;;
41943;SDS011;27636;52.610;13.244;2023-11-21T02:41:42;10.57;;;5.20;;
41943;SDS011;27636;52.610;13.244;2023-11-21T02:46:47;12.80;;;5.22;;
41943;SDS011;27636;52.610;13.244;2023-11-21T02:51:51;14.30;;;5.43;;
41943;SDS011;27636;52.610;13.244;2023-11-21T03:02:01;15.23;;;4.50;;
41943;SDS011;27636;52.610;13.244;2023-11-21T03:07:06;16.27;;;7.43;;
41943;SDS011;27636;52.610;13.244;2023-11-21T03:12:11;12.40;;;5.30;;
41943;SDS011;27636;52.610;13.244;2023-11-21T03:17:15;13.27;;;5.47;;
41943;SDS011;27636;52.610;13.244;2023-11-21T03:22:19;10.55;;;4.95;;
41943;SDS011;27636;52.610;13.244;2023-11-21T03:27:24;14.10;;;5.85;;
41943;SDS011;27636;52.610;13.244;2023-11-21T03:37:32;18.00;;;6.65;;
41943;SDS011;27636;52.610;13.244;2023-11-21T03:42:38;13.33;;;6.30;;
41943;SDS011;27636;52.610;13.244;2023-11-21T03:47:42;16.70;;;6.28;;
41943;SDS011;27636;52.610;13.244;2023-11-21T03:52:46;17.02;;;7.20;;
41943;SDS011;27636;52.610;13.244;2023-11-21T03:57:52;14.25;;;6.93;;
41943;SDS011;27636;52.610;13.244;2023-11-21T04:02:56;18.10;;;6.88;;
41943;SDS011;27636;52.610;13.244;2023-11-21T04:08:00;15.20;;;5.93;;
41943;SDS011;27636;52.610;13.244;2023-11-21T04:13:05;15.35;;;6.88;;
41943;SDS011;27636;52.610;13.244;2023-11-21T04:18:09;18.58;;;6.93;;
41943;SDS011;27636;52.610;13.244;2023-11-21T04:23:13;18.50;;;5.82;;
41943;SDS011;27636;52.610;13.244;2023-11-21T04:28:20;16.02;;;5.78;;
41943;SDS011;27636;52.610;13.244;2023-11-21T04:38:28;19.25;;;7.93;;
41943;SDS011;27636;52.610;13.244;2023-11-21T04:43:33;18.77;;;7.78;;
41943;SDS011;27636;52.610;13.244;2023-11-21T04:48:38;13.40;;;5.80;;
41943;SDS011;27636;52.610;13.244;2023-11-21T04:53:41;18.00;;;6.10;;
41943;SDS011;27636;52.610;13.244;2023-11-21T04:58:47;8.77;;;4.57;;
41943;SDS011;27636;52.610;13.244;2023-11-21T05:03:51;11.43;;;6.03;;
41943;SDS011;27636;52.610;13.244;2023-11-21T05:08:56;15.83;;;5.57;;
41943;SDS011;27636;52.610;13.244;2023-11-21T05:14:01;18.45;;;6.03;;
41943;SDS011;27636;52.610;13.244;2023-11-21T05:19:07;11.73;;;5.13;;
41943;SDS011;27636;52.610;13.244;2023-11-21T05:29:17;17.40;;;6.53;;
41943;SDS011;27636;52.610;13.244;2023-11-21T05:34:21;14.65;;;6.20;;
41943;SDS011;27636;52.610;13.244;2023-11-21T05:39:27;14.93;;;4.82;;
41943;SDS011;27636;52.610;13.244;2023-11-21T05:44:33;18.27;;;6.27;;
41943;SDS011;27636;52.610;13.244;2023-11-21T05:49:38;11.80;;;4.50;;
41943;SDS011;27636;52.610;13.244;2023-11-21T05:54:42;15.20;;;5.32;;
41943;SDS011;27636;52.610;13.244;2023-11-21T05:59:47;15.48;;;5.13;;
41943;SDS011;27636;52.610;13.244;2023-11-21T06:04:50;15.00;;;5.38;;
41943;SDS011;27636;52.610;13.244;2023-11-21T06:09:55;14.95;;;5.25;;
41943;SDS011;27636;52.610;13.244;2023-11-21T06:15:00;14.75;;;6.55;;
41943;SDS011;27636;52.610;13.244;2023-11-21T06:20:05;16.77;;;5.15;;
41943;SDS011;27636;52.610;13.244;2023-11-21T06:25:17;11.77;;;4.53;;
41943;SDS011;27636;52.610;13.244;2023-11-21T06:30:23;11.23;;;5.30;;
41943;SDS011;27636;52.610;13.244;2023-11-21T06:35:26;10.40;;;4.68;;
41943;SDS011;27636;52.610;13.244;2023-11-21T06:40:33;11.85;;;5.13;;
41943;SDS011;27636;52.610;13.244;2023-11-21T06:45:38;10.68;;;3.85;;
41943;SDS011;27636;52.610;13.244;2023-11-21T06:50:43;9.88;;;2.95;;
41943;SDS011;27636;52.610;13.244;2023-11-21T06:55:48;6.77;;;3.13;;
41943;SDS011;27636;52.610;13.244;2023-11-21T07:00:58;7.78;;;3.47;;
41943;SDS011;27636;52.610;13.244;2023-11-21T07:06:03;11.25;;;4.63;;
41943;SDS011;27636;52.610;13.244;2023-11-21T07:11:08;6.55;;;3.15;;
41943;SDS011;27636;52.610;13.244;2023-11-21T07:16:13;8.10;;;3.53;;
41943;SDS011;27636;52.610;13.244;2023-11-21T07:21:19;9.55;;;3.47;;
41943;SDS011;27636;52.610;13.244;2023-11-21T07:26:25;11.57;;;4.18;;
41943;SDS011;27636;52.610;13.244;2023-11-21T07:31:31;7.67;;;2.63;;
41943;SDS011;27636;52.610;13.244;2023-11-21T07:36:38;8.10;;;3.17;;
41943;SDS011;27636;52.610;13.244;2023-11-21T07:41:42;10.47;;;4.97;;
41943;SDS011;27636;52.610;13.244;2023-11-21T07:46:54;9.88;;;4.50;;
41943;SDS011;27636;52.610;13.244;2023-11-21T07:52:01;9.90;;;3.45;;
41943;SDS011;27636;52.610;13.244;2023-11-21T07:57:05;12.13;;;3.90;;
41943;SDS011;27636;52.610;13.244;2023-11-21T08:02:11;8.27;;;3.55;;
41943;SDS011;27636;52.610;13.244;2023-11-21T08:07:15;9.35;;;4.88;;
41943;SDS011;27636;52.610;13.244;2023-11-21T08:12:20;12.15;;;4.28;;
41943;SDS011;27636;52.610;13.244;2023-11-21T08:17:25;10.20;;;4.13;;
41943;SDS011;27636;52.610;13.244;2023-11-21T08:27:34;11.65;;;3.42;;
41943;SDS011;27636;52.610;13.244;2023-11-21T08:32:44;7.70;;;3.35;;
41943;SDS011;27636;52.610;13.244;2023-11-21T08:37:48;7.40;;;2.20;;
41943;SDS011;27636;52.610;13.244;2023-11-21T08:42:54;7.30;;;2.50;;
41943;SDS011;27636;52.610;13.244;2023-11-21T08:47:59;9.88;;;3.97;;
41943;SDS011;27636;52.610;13.244;2023-11-21T08:53:03;9.07;;;3.47;;
41943;SDS011;27636;52.610;13.244;2023-11-21T08:58:07;10.82;;;2.83;;
41943;SDS011;27636;52.610;13.244;2023-11-21T09:03:13;8.40;;;3.03;;
41943;SDS011;27636;52.610;13.244;2023-11-21T09:08:17;7.00;;;2.95;;
41943;SDS011;27636;52.610;13.244;2023-11-21T09:13:21;6.63;;;2.45;;
41943;SDS011;27636;52.610;13.244;2023-11-21T09:18:29;9.18;;;3.58;;
41943;SDS011;27636;52.610;13.244;2023-11-21T09:23:34;4.75;;;2.38;;
41943;SDS011;27636;52.610;13.244;2023-11-21T09:28:38;4.63;;;2.22;;
41943;SDS011;27636;52.610;13.244;2023-11-21T09:33:44;5.03;;;2.47;;
41943;SDS011;27636;52.610;13.244;2023-11-21T09:38:48;7.00;;;2.70;;
41943;SDS011;27636;52.610;13.244;2023-11-21T09:43:54;9.85;;;3.30;;
41943;SDS011;27636;52.610;13.244;2023-11-21T09:49:04;6.30;;;3.17;;
41943;SDS011;27636;52.610;13.244;2023-11-21T09:54:11;7.22;;;3.03;;
41943;SDS011;27636;52.610;13.244;2023-11-21T09:59:19;7.85;;;3.33;;
41943;SDS011;27636;52.610;13.244;2023-11-21T10:04:25;5.57;;;2.72;;
41943;SDS011;27636;52.610;13.244;2023-11-21T10:09:30;7.80;;;2.78;;
41943;SDS011;27636;52.610;13.244;2023-11-21T10:19:41;5.07;;;2.50;;
41943;SDS011;27636;52.610;13.244;2023-11-21T10:24:46;11.00;;;4.30;;
41943;SDS011;27636;52.610;13.244;2023-11-21T10:29:56;5.47;;;2.42;;
41943;SDS011;27636;52.610;13.244;2023-11-21T10:40:13;6.47;;;2.85;;
41943;SDS011;27636;52.610;13.244;2023-11-21T10:45:17;8.65;;;2.53;;
41943;SDS011;27636;52.610;13.244;2023-11-21T10:50:22;10.18;;;3.30;;
41943;SDS011;27636;52.610;13.244;2023-11-21T10:55:29;8.27;;;3.78;;
41943;SDS011;27636;52.610;13.244;2023-11-21T11:00:35;15.75;;;3.80;;
41943;SDS011;27636;52.610;13.244;2023-11-21T11:05:40;10.80;;;3.55;;
41943;SDS011;27636;52.610;13.244;2023-11-21T11:10:50;6.35;;;2.58;;
41943;SDS011;27636;52.610;13.244;2023-11-21T11:15:56;7.85;;;2.88;;
41943;SDS011;27636;52.610;13.244;2023-11-21T11:21:10;11.38;;;3.38;;
41943;SDS011;27636;52.610;13.244;2023-11-21T11:26:28;6.53;;;2.75;;
41943;SDS011;27636;52.610;13.244;2023-11-21T11:31:39;10.38;;;3.85;;
41943;SDS011;27636;52.610;13.244;2023-11-21T11:36:56;4.90;;;2.47;;
41943;SDS011;27636;52.610;13.244;2023-11-21T11:42:07;9.18;;;2.85;;
41943;SDS011;27636;52.610;13.244;2023-11-21T11:47:13;8.30;;;2.92;;
41943;SDS011;27636;52.610;13.244;2023-11-21T11:52:39;7.47;;;2.97;;
41943;SDS011;27636;52.610;13.244;2023-11-21T11:57:44;11.18;;;2.85;;
41943;SDS011;27636;52.610;13.244;2023-11-21T12:02:50;7.40;;;2.80;;
41943;SDS011;27636;52.610;13.244;2023-11-21T12:07:57;6.60;;;2.60;;
41943;SDS011;27636;52.610;13.244;2023-11-21T12:13:05;9.00;;;3.30;;
41943;SDS011;27636;52.610;13.244;2023-11-21T12:18:15;6.78;;;2.65;;
41943;SDS011;27636;52.610;13.244;2023-11-21T12:23:20;6.63;;;2.78;;
41943;SDS011;27636;52.610;13.244;2023-11-21T12:28:25;15.98;;;4.30;;
41943;SDS011;27636;52.610;13.244;2023-11-21T12:33:30;8.75;;;3.03;;
41943;SDS011;27636;52.610;13.244;2023-11-21T12:38:35;13.30;;;3.65;;
41943;SDS011;27636;52.610;13.244;2023-11-21T12:43:39;8.77;;;3.15;;
41943;SDS011;27636;52.610;13.244;2023-11-21T12:48:43;7.65;;;2.95;;
41943;SDS011;27636;52.610;13.244;2023-11-21T12:53:52;11.75;;;3.72;;
41943;SDS011;27636;52.610;13.244;2023-11-21T12:58:56;6.50;;;2.85;;
41943;SDS011;27636;52.610;13.244;2023-11-21T13:04:02;12.35;;;4.70;;
41943;SDS011;27636;52.610;13.244;2023-11-21T13:09:09;7.07;;;3.63;;
41943;SDS011;27636;52.610;13.244;2023-11-21T13:14:28;11.25;;;3.78;;
41943;SDS011;27636;52.610;13.244;2023-11-21T13:19:32;11.18;;;5.28;;
41943;SDS011;27636;52.610;13.244;2023-11-21T13:24:37;15.20;;;6.97;;
41943;SDS011;27636;52.610;13.244;2023-11-21T13:34:45;12.35;;;4.72;;
41943;SDS011;27636;52.610;13.244;2023-11-21T13:39:52;17.88;;;6.97;;
41943;SDS011;27636;52.610;13.244;2023-11-21T13:44:56;12.70;;;6.43;;
41943;SDS011;27636;52.610;13.244;2023-11-21T13:50:00;14.52;;;5.70;;
41943;SDS011;27636;52.610;13.244;2023-11-21T13:55:05;11.75;;;4.85;;
41943;SDS011;27636;52.610;13.244;2023-11-21T14:00:17;17.80;;;6.80;;
41943;SDS011;27636;52.610;13.244;2023-11-21T14:05:40;20.50;;;5.63;;
41943;SDS011;27636;52.610;13.244;2023-11-21T14:10:48;21.25;;;6.78;;
41943;SDS011;27636;52.610;13.244;2023-11-21T14:15:54;23.08;;;8.75;;
41943;SDS011;27636;52.610;13.244;2023-11-21T14:21:02;30.10;;;7.43;;
41943;SDS011;27636;52.610;13.244;2023-11-21T14:26:07;19.30;;;7.32;;
41943;SDS011;27636;52.610;13.244;2023-11-21T14:36:18;17.05;;;5.50;;
41943;SDS011;27636;52.610;13.244;2023-11-21T14:41:23;13.02;;;6.88;;
41943;SDS011;27636;52.610;13.244;2023-11-21T14:46:28;16.15;;;5.80;;
41943;SDS011;27636;52.610;13.244;2023-11-21T14:51:32;9.85;;;4.55;;
41943;SDS011;27636;52.610;13.244;2023-11-21T14:56:53;15.98;;;6.47;;
41943;SDS011;27636;52.610;13.244;2023-11-21T15:01:57;12.82;;;5.85;;
41943;SDS011;27636;52.610;13.244;2023-11-21T15:07:12;11.80;;;5.90;;
41943;SDS011;27636;52.610;13.244;2023-11-21T15:12:17;11.93;;;5.87;;
41943;SDS011;27636;52.610;13.244;2023-11-21T15:17:23;14.52;;;5.47;;
41943;SDS011;27636;52.610;13.244;2023-11-21T15:22:30;11.93;;;5.80;;
41943;SDS011;27636;52.610;13.244;2023-11-21T15:27:35;12.63;;;6.97;;
41943;SDS011;27636;52.610;13.244;2023-11-21T15:32:42;13.52;;;6.15;;
41943;SDS011;27636;52.610;13.244;2023-11-21T15:37:46;15.57;;;7.07;;
41943;SDS011;27636;52.610;13.244;2023-11-21T15:42:51;21.00;;;10.55;;
41943;SDS011;27636;52.610;13.244;2023-11-21T15:53:01;14.98;;;7.75;;
41943;SDS011;27636;52.610;13.244;2023-11-21T15:58:09;15.80;;;6.85;;
41943;SDS011;27636;52.610;13.244;2023-11-21T16:08:17;17.50;;;7.45;;
41943;SDS011;27636;52.610;13.244;2023-11-21T16:13:23;14.57;;;7.35;;
41943;SDS011;27636;52.610;13.244;2023-11-21T16:18:27;11.25;;;5.28;;
41943;SDS011;27636;52.610;13.244;2023-11-21T16:23:31;19.90;;;6.00;;
41943;SDS011;27636;52.610;13.244;2023-11-21T16:28:36;19.63;;;7.85;;
41943;SDS011;27636;52.610;13.244;2023-11-21T16:33:40;19.08;;;6.30;;
41943;SDS011;27636;52.610;13.244;2023-11-21T16:38:44;13.60;;;5.95;;
41943;SDS011;27636;52.610;13.244;2023-11-21T16:43:49;9.23;;;4.85;;
41943;SDS011;27636;52.610;13.244;2023-11-21T16:48:54;13.90;;;5.07;;
41943;SDS011;27636;52.610;13.244;2023-11-21T16:53:57;8.80;;;3.95;;
41943;SDS011;27636;52.610;13.244;2023-11-21T16:59:03;7.30;;;4.32;;
41943;SDS011;27636;52.610;13.244;2023-11-21T17:04:07;14.07;;;4.60;;
41943;SDS011;27636;52.610;13.244;2023-11-21T17:09:12;7.00;;;3.83;;
41943;SDS011;27636;52.610;13.244;2023-11-21T17:14:18;9.10;;;3.90;;
41943;SDS011;27636;52.610;13.244;2023-11-21T17:19:22;11.18;;;4.80;;
41943;SDS011;27636;52.610;13.244;2023-11-21T17:24:26;10.23;;;5.38;;
41943;SDS011;27636;52.610;13.244;2023-11-21T17:29:31;10.95;;;4.15;;
41943;SDS011;27636;52.610;13.244;2023-11-21T17:34:35;11.52;;;4.95;;
41943;SDS011;27636;52.610;13.244;2023-11-21T17:39:40;10.43;;;4.10;;
41943;SDS011;27636;52.610;13.244;2023-11-21T17:44:45;10.00;;;4.17;;
41943;SDS011;27636;52.610;13.244;2023-11-21T17:54:53;7.70;;;4.28;;
41943;SDS011;27636;52.610;13.244;2023-11-21T17:59:59;6.27;;;3.03;;
41943;SDS011;27636;52.610;13.244;2023-11-21T18:05:10;10.32;;;3.95;;
41943;SDS011;27636;52.610;13.244;2023-11-21T18:10:16;9.93;;;4.90;;
41943;SDS011;27636;52.610;13.244;2023-11-21T18:15:21;8.35;;;4.10;;
41943;SDS011;27636;52.610;13.244;2023-11-21T18:25:29;7.60;;;3.92;;
41943;SDS011;27636;52.610;13.244;2023-11-21T18:30:34;7.03;;;3.70;;
41943;SDS011;27636;52.610;13.244;2023-11-21T18:40:42;9.52;;;3.58;;
41943;SDS011;27636;52.610;13.244;2023-11-21T18:45:47;7.88;;;3.90;;
41943;SDS011;27636;52.610;13.244;2023-11-21T18:50:52;11.63;;;3.45;;
41943;SDS011;27636;52.610;13.244;2023-11-21T18:55:58;8.15;;;3.78;;
41943;SDS011;27636;52.610;13.244;2023-11-21T19:01:04;7.88;;;3.38;;
41943;SDS011;27636;52.610;13.244;2023-11-21T19:06:08;10.30;;;3.45;;
41943;SDS011;27636;52.610;13.244;2023-11-21T19:11:12;8.02;;;3.67;;
41943;SDS011;27636;52.610;13.244;2023-11-21T19:16:18;11.43;;;3.95;;
41943;SDS011;27636;52.610;13.244;2023-11-21T19:21:22;8.38;;;3.40;;
41943;SDS011;27636;52.610;13.244;2023-11-21T19:26:26;7.77;;;4.63;;
41943;SDS011;27636;52.610;13.244;2023-11-21T19:31:31;10.18;;;4.05;;
41943;SDS011;27636;52.610;13.244;2023-11-21T19:36:38;12.30;;;3.88;;
41943;SDS011;27636;52.610;13.244;2023-11-21T19:41:44;12.45;;;4.05;;
41943;SDS011;27636;52.610;13.244;2023-11-21T19:46:51;5.30;;;2.95;;
41943;SDS011;27636;52.610;13.244;2023-11-21T19:56:59;15.03;;;3.40;;
41943;SDS011;27636;52.610;13.244;2023-11-21T20:02:08;5.00;;;2.33;;
41943;SDS011;27636;52.610;13.244;2023-11-21T20:07:13;8.15;;;3.78;;
41943;SDS011;27636;52.610;13.244;2023-11-21T20:12:18;6.13;;;3.63;;
41943;SDS011;27636;52.610;13.244;2023-11-21T20:17:24;10.70;;;3.50;;
41943;SDS011;27636;52.610;13.244;2023-11-21T20:22:28;6.28;;;2.88;;
41943;SDS011;27636;52.610;13.244;2023-11-21T20:27:31;11.98;;;3.95;;
41943;SDS011;27636;52.610;13.244;2023-11-21T20:32:37;8.25;;;4.68;;
41943;SDS011;27636;52.610;13.244;2023-11-21T20:37:41;9.30;;;5.32;;
41943;SDS011;27636;52.610;13.244;2023-11-21T20:42:45;6.10;;;2.45;;
41943;SDS011;27636;52.610;13.244;2023-11-21T20:52:55;8.10;;;3.03;;
41943;SDS011;27636;52.610;13.244;2023-11-21T20:58:05;9.47;;;3.43;;
41943;SDS011;27636;52.610;13.244;2023-11-21T21:04:04;7.70;;;2.75;;
41943;SDS011;27636;52.610;13.244;2023-11-21T21:10:05;5.45;;;2.78;;
41943;SDS011;27636;52.610;13.244;2023-11-21T21:15:46;7.80;;;4.47;;
41943;SDS011;27636;52.610;13.244;2023-11-21T21:20:53;4.53;;;2.75;;
41943;SDS011;27636;52.610;13.244;2023-11-21T21:25:58;9.38;;;2.80;;
41943;SDS011;27636;52.610;13.244;2023-11-21T21:31:02;5.10;;;2.45;;
41943;SDS011;27636;52.610;13.244;2023-11-21T21:36:10;8.02;;;3.03;;
41943;SDS011;27636;52.610;13.244;2023-11-21T21:41:15;5.35;;;3.03;;
41943;SDS011;27636;52.610;13.244;2023-11-21T21:46:21;7.57;;;2.33;;
41943;SDS011;27636;52.610;13.244;2023-11-21T21:51:27;4.88;;;2.47;;
41943;SDS011;27636;52.610;13.244;2023-11-21T21:56:31;3.45;;;2.33;;
41943;SDS011;27636;52.610;13.244;2023-11-21T22:01:35;5.22;;;2.40;;
41943;SDS011;27636;52.610;13.244;2023-11-21T22:06:42;5.10;;;3.25;;
41943;SDS011;27636;52.610;13.244;2023-11-21T22:11:46;4.18;;;2.50;;
41943;SDS011;27636;52.610;13.244;2023-11-21T22:16:50;12.57;;;3.10;;
41943;SDS011;27636;52.610;13.244;2023-11-21T22:21:55;7.87;;;2.97;;
41943;SDS011;27636;52.610;13.244;2023-11-21T22:26:59;3.15;;;2.10;;
41943;SDS011;27636;52.610;13.244;2023-11-21T22:32:05;6.65;;;2.45;;
41943;SDS011;27636;52.610;13.244;2023-11-21T22:37:10;3.45;;;2.38;;
41943;SDS011;27636;52.610;13.244;2023-11-21T22:42:14;4.22;;;3.20;;
41943;SDS011;27636;52.610;13.244;2023-11-21T22:47:18;1.77;;;1.35;;
41943;SDS011;27636;52.610;13.244;2023-11-21T22:52:26;8.60;;;3.05;;
41943;SDS011;27636;52.610;13.244;2023-11-21T22:57:30;2.65;;;1.70;;
41943;SDS011;27636;52.610;13.244;2023-11-21T23:02:34;2.78;;;1.63;;
41943;SDS011;27636;52.610;13.244;2023-11-21T23:07:40;8.35;;;2.65;;
41943;SDS011;27636;52.610;13.244;2023-11-21T23:12:45;4.55;;;1.73;;
41943;SDS011;27636;52.610;13.244;2023-11-21T23:17:49;3.50;;;1.90;;
41943;SDS011;27636;52.610;13.244;2023-11-21T23:22:55;4.50;;;2.58;;
41943;SDS011;27636;52.610;13.244;2023-11-21T23:27:59;4.68;;;2.05;;
41943;SDS011;27636;52.610;13.244;2023-11-21T23:33:04;3.28;;;2.17;;
41943;SDS011;27636;52.610;13.244;2023-11-21T23:38:09;2.70;;;2.50;;
41943;SDS011;27636;52.610;13.244;2023-11-21T23:43:13;3.85;;;2.38;;
41943;SDS011;27636;52.610;13.244;2023-11-21T23:48:17;4.85;;;2.50;;
41943;SDS011;27636;52.610;13.244;2023-11-21T23:53:22;4.03;;;2.58;;
41943;SDS011;27636;52.610;13.244;2023-11-21T23:58:26;7.22;;;2.25;;
